Time;durP1;ratioP1;P1;durP2;ratioP2;P2;SDS_P1;SDS_P2;PMS_P1;PMS_P2;Temp;Humidity;BMP_temperature;BMP_pressure;BME280_temperature;BME280_humidity;BME280_pressure;Samples;Min_cycle;Max_cycle;Signal;HPM_P1;HPM_P2
2022/10/07 00:02:05;;;;;;;;;;;21.60;99.90;;;;;;4969753;28;19915;-78
2022/10/07 00:04:35;;;;;;;;;;;21.70;99.90;;;;;;4968085;28;19914;-78
2022/10/07 00:07:02;;;;;;;;;;;21.70;99.90;;;;;;4967678;28;19914;-79
2022/10/07 00:09:29;;;;;;;;;;;21.80;99.90;;;;;;4967454;28;19918;-78
2022/10/07 00:11:57;;;;;;;;;;;21.90;99.90;;;;;;4974295;28;19922;-78
2022/10/07 00:14:24;;;;;;;;;;;21.90;99.90;;;;;;4967861;28;19914;-78
2022/10/07 00:16:50;;;;;;;;;;;22.10;99.90;;;;;;4967709;28;19922;-77
2022/10/07 00:19:17;;;;;;;;;;;21.90;99.90;;;;;;4967536;28;19962;-81
2022/10/07 00:21:44;;;;;;;;;;;22.00;99.90;;;;;;4976087;28;20266;-81
2022/10/07 00:24:11;;;;;;;;;;;22.00;99.90;;;;;;4987169;28;19910;-79
2022/10/07 00:26:37;;;;;;;;;;;22.00;99.90;;;;;;4984011;28;19914;-78
2022/10/07 00:29:05;;;;;;;;;;;22.10;99.90;;;;;;4967335;28;19922;-78
2022/10/07 00:31:34;;;;;;;;;;;22.00;99.90;;;;;;4973603;28;19921;-81
2022/10/07 00:34:02;;;;;;;;;;;22.00;99.90;;;;;;4967321;28;19910;-76
2022/10/07 00:36:38;;;;;;;;;;;22.10;99.90;;;;;;4967256;28;20753;-82
2022/10/07 00:39:06;;;;;;;;;;;22.00;99.90;;;;;;4970839;28;19921;-77
2022/10/07 00:41:34;;;;;;;;;;;22.20;99.90;;;;;;4978336;28;19921;-78
2022/10/07 00:44:21;;;;;;;;;;;22.30;99.90;;;;;;4973518;28;19956;-77
2022/10/07 00:46:48;;;;;;;;;;;22.40;99.90;;;;;;5023541;28;19918;-80
2022/10/07 00:49:14;;;;;;;;;;;22.40;99.90;;;;;;5035845;28;19914;-79
2022/10/07 00:51:42;;;;;;;;;;;22.50;99.90;;;;;;5045782;28;19914;-78
2022/10/07 00:54:11;;;;;;;;;;;22.50;99.90;;;;;;4973192;28;19910;-80
2022/10/07 00:56:38;;;;;;;;;;;22.50;99.90;;;;;;4970743;28;19917;-78
2022/10/07 00:59:05;;;;;;;;;;;22.50;99.90;;;;;;4970756;28;19914;-79
2022/10/07 01:01:32;;;;;;;;;;;22.60;99.90;;;;;;4971720;28;19917;-81
2022/10/07 01:03:59;;;;;;;;;;;22.60;99.90;;;;;;4973752;28;19915;-83
2022/10/07 01:06:25;;;;;;;;;;;22.60;99.90;;;;;;4971555;28;20369;-80
2022/10/07 01:08:53;;;;;;;;;;;22.60;99.90;;;;;;4971346;28;19910;-78
2022/10/07 01:11:28;;;;;;;;;;;22.60;99.90;;;;;;4975340;28;20016;-80
2022/10/07 01:14:13;;;;;;;;;;;22.50;99.90;;;;;;4973025;28;19921;-80
2022/10/07 01:16:46;;;;;;;;;;;22.50;99.90;;;;;;4963891;28;20413;-78
2022/10/07 01:19:20;;;;;;;;;;;22.50;99.90;;;;;;4971475;28;19947;-81
2022/10/07 01:22:04;;;;;;;;;;;22.50;99.90;;;;;;4979324;28;19914;-78
2022/10/07 01:24:39;;;;;;;;;;;22.50;99.90;;;;;;4974335;28;19945;-83
2022/10/07 01:27:13;;;;;;;;;;;22.40;99.90;;;;;;4974191;28;19921;-80
2022/10/07 01:29:43;;;;;;;;;;;22.40;99.90;;;;;;4970866;28;19918;-81
2022/10/07 01:32:12;;;;;;;;;;;22.40;99.90;;;;;;4973910;28;19968;-81
2022/10/07 01:34:41;;;;;;;;;;;22.30;99.90;;;;;;5060455;28;19908;-78
2022/10/07 01:37:10;;;;;;;;;;;22.40;99.90;;;;;;4983534;28;19914;-77
2022/10/07 01:39:40;;;;;;;;;;;22.30;99.90;;;;;;5008933;28;19910;-78
2022/10/07 01:42:06;;;;;;;;;;;22.30;99.90;;;;;;4979410;28;19909;-77
2022/10/07 01:44:34;;;;;;;;;;;22.30;99.90;;;;;;4967781;28;20282;-78
2022/10/07 01:47:00;;;;;;;;;;;22.20;99.90;;;;;;4967953;28;20051;-79
2022/10/07 01:49:28;;;;;;;;;;;22.20;99.90;;;;;;4968000;28;20370;-76
2022/10/07 01:52:07;;;;;;;;;;;22.20;99.90;;;;;;4979750;28;19914;-78
2022/10/07 01:54:37;;;;;;;;;;;22.10;99.90;;;;;;4952752;28;19971;-78
2022/10/07 01:57:10;;;;;;;;;;;22.00;99.90;;;;;;5036413;28;19910;-79
2022/10/07 01:59:50;;;;;;;;;;;22.00;99.90;;;;;;4970147;28;19914;-80
2022/10/07 02:02:29;;;;;;;;;;;22.00;99.90;;;;;;4976845;28;19914;-81
2022/10/07 02:05:08;;;;;;;;;;;22.00;99.90;;;;;;4969465;28;19914;-79
2022/10/07 02:07:37;;;;;;;;;;;22.00;99.90;;;;;;4969906;28;19914;-79
2022/10/07 02:10:22;;;;;;;;;;;21.80;99.90;;;;;;4951284;28;20283;-79
2022/10/07 02:12:56;;;;;;;;;;;21.70;99.90;;;;;;4968811;28;19914;-78
2022/10/07 02:15:40;;;;;;;;;;;21.60;99.90;;;;;;4967522;28;21318;-79
2022/10/07 02:18:10;;;;;;;;;;;21.50;99.90;;;;;;5030702;28;20367;-78
2022/10/07 02:20:38;;;;;;;;;;;21.50;99.90;;;;;;4969465;28;20396;-76
2022/10/07 02:23:07;;;;;;;;;;;21.40;99.90;;;;;;4988579;28;19967;-78
2022/10/07 02:25:39;;;;;;;;;;;21.40;99.90;;;;;;4977378;28;19962;-76
2022/10/07 02:28:07;;;;;;;;;;;21.40;99.90;;;;;;4968863;28;19918;-76
2022/10/07 02:30:34;;;;;;;;;;;21.30;99.90;;;;;;4968833;28;19986;-77
2022/10/07 02:33:02;;;;;;;;;;;21.20;99.90;;;;;;4979468;28;20355;-74
2022/10/07 02:35:44;;;;;;;;;;;21.20;99.90;;;;;;5035354;28;19950;-76
2022/10/07 02:38:12;;;;;;;;;;;21.10;99.90;;;;;;4968952;28;19914;-75
2022/10/07 02:40:58;;;;;;;;;;;21.10;99.90;;;;;;5000473;28;19912;-76
2022/10/07 02:43:31;;;;;;;;;;;21.10;99.90;;;;;;4952320;28;19918;-76
2022/10/07 02:46:03;;;;;;;;;;;21.00;99.90;;;;;;4952274;28;20064;-78
2022/10/07 02:48:38;;;;;;;;;;;21.00;99.90;;;;;;4968671;28;19953;-77
2022/10/07 02:51:07;;;;;;;;;;;21.00;99.90;;;;;;4971898;28;19921;-75
2022/10/07 02:53:35;;;;;;;;;;;21.00;99.90;;;;;;4975055;28;19917;-79
2022/10/07 02:56:02;;;;;;;;;;;20.90;99.90;;;;;;4968891;28;19918;-76
2022/10/07 02:58:29;;;;;;;;;;;20.80;99.90;;;;;;4968220;28;19957;-78
2022/10/07 03:00:59;;;;;;;;;;;20.70;99.90;;;;;;5036827;28;20421;-79
2022/10/07 03:03:26;;;;;;;;;;;20.60;99.90;;;;;;4970350;28;19914;-77
2022/10/07 03:05:53;;;;;;;;;;;20.60;99.90;;;;;;5034878;28;19953;-80
2022/10/07 03:08:21;;;;;;;;;;;20.60;99.90;;;;;;4968811;28;20000;-82
2022/10/07 03:10:48;;;;;;;;;;;20.60;99.90;;;;;;4968864;28;20020;-78
2022/10/07 03:13:15;;;;;;;;;;;20.60;99.90;;;;;;4977431;28;20263;-79
2022/10/07 03:15:42;;;;;;;;;;;20.60;99.90;;;;;;4968129;28;19914;-83
2022/10/07 03:18:24;;;;;;;;;;;20.60;99.90;;;;;;4968606;28;19922;-76
2022/10/07 03:20:52;;;;;;;;;;;20.50;99.90;;;;;;4968771;28;20368;-75
2022/10/07 03:23:19;;;;;;;;;;;20.50;99.90;;;;;;4969771;28;19914;-75
2022/10/07 03:25:52;;;;;;;;;;;20.40;99.90;;;;;;4968561;28;19971;-74
2022/10/07 03:28:19;;;;;;;;;;;20.40;99.90;;;;;;4968570;28;19911;-75
2022/10/07 03:30:47;;;;;;;;;;;20.40;99.90;;;;;;4981370;28;20041;-76
2022/10/07 03:33:14;;;;;;;;;;;20.30;99.90;;;;;;4979706;28;19914;-75
2022/10/07 03:35:40;;;;;;;;;;;20.30;99.90;;;;;;4966998;28;19914;-75
2022/10/07 03:38:07;;;;;;;;;;;20.30;99.90;;;;;;4966214;28;19961;-75
2022/10/07 03:40:34;;;;;;;;;;;20.30;99.90;;;;;;4966667;28;20582;-74
2022/10/07 03:43:01;;;;;;;;;;;20.20;99.90;;;;;;4970815;28;19914;-74
2022/10/07 03:45:31;;;;;;;;;;;20.20;99.90;;;;;;4966496;28;19914;-75
2022/10/07 03:47:58;;;;;;;;;;;20.20;99.90;;;;;;4975208;28;20373;-74
2022/10/07 03:50:25;;;;;;;;;;;20.20;99.90;;;;;;4966374;28;19980;-75
2022/10/07 03:52:52;;;;;;;;;;;20.20;99.90;;;;;;4980346;28;19915;-75
2022/10/07 03:55:19;;;;;;;;;;;20.10;99.90;;;;;;4968520;28;20005;-75
2022/10/07 03:57:54;;;;;;;;;;;20.10;99.90;;;;;;4968571;28;19910;-74
2022/10/07 04:00:22;;;;;;;;;;;20.10;99.90;;;;;;4967863;28;19914;-75
2022/10/07 04:02:49;;;;;;;;;;;20.00;99.90;;;;;;4976439;28;19918;-74
2022/10/07 04:05:16;;;;;;;;;;;20.00;99.90;;;;;;4968524;28;20014;-74
2022/10/07 04:07:44;;;;;;;;;;;20.00;99.90;;;;;;4968121;28;19911;-74
2022/10/07 04:10:12;;;;;;;;;;;20.00;99.90;;;;;;4968378;28;19975;-75
2022/10/07 04:12:39;;;;;;;;;;;19.90;99.90;;;;;;4971703;28;20363;-75
2022/10/07 04:15:06;;;;;;;;;;;19.90;99.90;;;;;;4971104;28;19917;-76
2022/10/07 04:17:32;;;;;;;;;;;19.80;99.90;;;;;;4970670;28;19922;-75
2022/10/07 04:19:59;;;;;;;;;;;19.80;99.90;;;;;;4971452;28;20396;-75
2022/10/07 04:22:26;;;;;;;;;;;19.70;99.90;;;;;;4979186;28;19918;-74
2022/10/07 04:27:37;;;;;;;;;;;19.70;99.90;;;;;;4971218;28;20278;-72
2022/10/07 04:30:04;;;;;;;;;;;19.70;99.90;;;;;;4971103;28;19929;-73
2022/10/07 04:32:31;;;;;;;;;;;19.70;99.90;;;;;;4993122;28;19918;-72
2022/10/07 04:34:57;;;;;;;;;;;19.70;99.90;;;;;;4971320;28;19910;-75
2022/10/07 04:37:25;;;;;;;;;;;19.60;99.90;;;;;;4969886;28;19929;-78
2022/10/07 04:39:51;;;;;;;;;;;19.70;99.90;;;;;;4970325;28;19963;-76
2022/10/07 04:45:03;;;;;;;;;;;19.60;99.90;;;;;;4963290;28;20006;-75
2022/10/07 04:47:29;;;;;;;;;;;19.60;99.90;;;;;;4960575;28;19968;-76
2022/10/07 04:49:56;;;;;;;;;;;19.60;99.90;;;;;;4970855;28;20426;-75
2022/10/07 04:52:24;;;;;;;;;;;19.60;99.90;;;;;;4976757;28;19918;-76
2022/10/07 04:54:51;;;;;;;;;;;19.60;99.90;;;;;;4971442;28;20290;-75
2022/10/07 04:57:18;;;;;;;;;;;19.60;99.90;;;;;;4970084;28;19925;-75
2022/10/07 04:59:44;;;;;;;;;;;19.60;99.90;;;;;;5035406;28;20348;-76
2022/10/07 05:02:11;;;;;;;;;;;19.50;99.90;;;;;;4962484;28;19914;-76
2022/10/07 05:04:38;;;;;;;;;;;19.50;99.90;;;;;;4953209;28;19910;-74
2022/10/07 05:07:04;;;;;;;;;;;19.40;99.90;;;;;;4969354;28;20378;-76
2022/10/07 05:09:31;;;;;;;;;;;19.20;99.90;;;;;;4971136;28;19918;-77
2022/10/07 05:11:58;;;;;;;;;;;19.10;99.90;;;;;;4967672;28;19920;-75
2022/10/07 05:14:25;;;;;;;;;;;19.10;99.90;;;;;;4968987;28;19944;-76
2022/10/07 05:16:52;;;;;;;;;;;19.00;99.90;;;;;;4969233;28;19922;-72
2022/10/07 05:19:19;;;;;;;;;;;18.90;99.90;;;;;;4970512;28;19917;-75
2022/10/07 05:21:45;;;;;;;;;;;18.90;99.90;;;;;;4974134;28;19947;-74
2022/10/07 05:24:12;;;;;;;;;;;18.90;99.90;;;;;;4972160;28;20283;-75
2022/10/07 05:26:39;;;;;;;;;;;18.70;99.90;;;;;;4966883;28;19914;-75
2022/10/07 05:29:05;;;;;;;;;;;18.70;99.90;;;;;;4970603;28;19917;-76
2022/10/07 05:31:32;;;;;;;;;;;18.70;99.90;;;;;;5006070;28;19923;-74
2022/10/07 05:33:59;;;;;;;;;;;18.60;99.90;;;;;;5071969;28;19920;-75
2022/10/07 05:36:26;;;;;;;;;;;18.60;99.90;;;;;;4970589;28;19968;-75
2022/10/07 05:38:59;;;;;;;;;;;18.60;99.90;;;;;;4970674;28;19985;-75
2022/10/07 05:41:29;;;;;;;;;;;18.50;99.90;;;;;;4994789;28;19912;-73
2022/10/07 05:43:55;;;;;;;;;;;18.50;99.90;;;;;;5072788;28;19927;-74
2022/10/07 05:46:22;;;;;;;;;;;18.40;99.90;;;;;;4981212;28;19965;-73
2022/10/07 05:48:50;;;;;;;;;;;18.40;99.90;;;;;;4969975;28;20000;-78
2022/10/07 05:51:18;;;;;;;;;;;18.40;99.90;;;;;;4987078;28;19927;-75
2022/10/07 05:53:45;;;;;;;;;;;18.30;99.90;;;;;;4985640;28;20056;-74
2022/10/07 05:56:15;;;;;;;;;;;18.30;99.90;;;;;;4970379;28;20378;-75
2022/10/07 05:58:42;;;;;;;;;;;18.30;99.90;;;;;;4970205;28;20363;-75
2022/10/07 06:01:13;;;;;;;;;;;18.30;99.90;;;;;;4996563;28;19957;-73
2022/10/07 06:03:39;;;;;;;;;;;18.30;99.90;;;;;;4984615;28;19932;-74
2022/10/07 06:06:07;;;;;;;;;;;18.30;99.90;;;;;;4969503;28;19928;-75
2022/10/07 06:08:37;;;;;;;;;;;18.30;99.90;;;;;;4969381;28;19914;-75
2022/10/07 06:13:50;;;;;;;;;;;18.30;99.90;;;;;;4970381;28;19917;-75
2022/10/07 06:16:17;;;;;;;;;;;18.20;99.90;;;;;;4969887;28;19947;-79
2022/10/07 06:18:44;;;;;;;;;;;18.20;99.90;;;;;;4969818;28;19921;-77
2022/10/07 06:21:11;;;;;;;;;;;18.20;99.90;;;;;;4970126;28;20004;-77
2022/10/07 06:23:38;;;;;;;;;;;18.20;99.90;;;;;;4969327;28;19910;-74
2022/10/07 06:26:06;;;;;;;;;;;18.20;99.90;;;;;;4968816;28;19914;-77
2022/10/07 06:28:37;;;;;;;;;;;18.30;99.90;;;;;;4994123;28;19919;-77
2022/10/07 06:31:05;;;;;;;;;;;18.20;99.90;;;;;;4982262;28;19926;-74
2022/10/07 06:33:32;;;;;;;;;;;18.20;99.90;;;;;;4969371;28;20317;-76
2022/10/07 06:36:02;;;;;;;;;;;18.10;99.90;;;;;;4968893;28;19910;-75
2022/10/07 06:38:29;;;;;;;;;;;18.20;99.90;;;;;;4968813;28;19983;-75
2022/10/07 06:41:00;;;;;;;;;;;18.10;99.90;;;;;;4990159;28;20009;-75
2022/10/07 06:43:27;;;;;;;;;;;18.00;99.90;;;;;;4968209;28;19918;-75
2022/10/07 06:45:58;;;;;;;;;;;18.00;99.90;;;;;;4956707;28;19926;-75
2022/10/07 06:48:25;;;;;;;;;;;18.00;99.90;;;;;;4968108;28;20398;-76
2022/10/07 06:50:52;;;;;;;;;;;18.00;99.90;;;;;;4969650;28;19929;-76
2022/10/07 06:53:19;;;;;;;;;;;18.00;99.90;;;;;;4967814;28;19910;-76
2022/10/07 06:55:46;;;;;;;;;;;17.90;99.90;;;;;;4968891;28;19914;-76
2022/10/07 06:58:12;;;;;;;;;;;17.90;99.90;;;;;;4969238;28;19914;-75
2022/10/07 07:00:39;;;;;;;;;;;17.90;99.90;;;;;;4968347;28;19914;-77
2022/10/07 07:03:06;;;;;;;;;;;17.80;99.90;;;;;;4969680;28;20328;-77
2022/10/07 07:05:37;;;;;;;;;;;17.90;99.90;;;;;;4968029;28;20001;-75
2022/10/07 07:08:04;;;;;;;;;;;17.80;99.90;;;;;;5051660;28;20031;-75
2022/10/07 07:10:35;;;;;;;;;;;17.80;99.90;;;;;;5022489;28;20386;-74
2022/10/07 07:13:02;;;;;;;;;;;17.90;99.90;;;;;;4969010;28;20418;-74
2022/10/07 07:15:29;;;;;;;;;;;17.80;99.90;;;;;;4967991;28;20366;-75
2022/10/07 07:17:55;;;;;;;;;;;17.80;99.90;;;;;;4967514;28;19926;-75
2022/10/07 07:20:22;;;;;;;;;;;17.80;99.90;;;;;;4968082;28;19917;-77
2022/10/07 07:22:51;;;;;;;;;;;17.80;99.90;;;;;;4968066;28;20039;-78
2022/10/07 07:25:21;;;;;;;;;;;17.80;99.90;;;;;;4967922;28;19918;-78
2022/10/07 07:27:48;;;;;;;;;;;17.80;99.90;;;;;;4967898;28;20378;-76
2022/10/07 07:30:14;;;;;;;;;;;17.80;99.90;;;;;;4967813;28;19926;-78
2022/10/07 07:32:42;;;;;;;;;;;17.80;99.90;;;;;;4968351;28;20272;-80
2022/10/07 07:35:09;;;;;;;;;;;17.70;99.90;;;;;;4967589;28;19916;-77
2022/10/07 07:37:35;;;;;;;;;;;17.70;99.90;;;;;;4967459;28;20342;-78
2022/10/07 07:40:02;;;;;;;;;;;17.70;99.90;;;;;;4969059;28;19968;-79
2022/10/07 07:42:29;;;;;;;;;;;17.70;99.90;;;;;;4968613;28;19910;-76
2022/10/07 07:44:55;;;;;;;;;;;17.70;99.90;;;;;;4969021;28;19914;-75
2022/10/07 07:47:22;;;;;;;;;;;17.70;99.90;;;;;;4967881;28;20013;-76
2022/10/07 07:49:49;;;;;;;;;;;17.70;99.90;;;;;;4969447;28;20009;-78
2022/10/07 07:52:16;;;;;;;;;;;17.70;99.90;;;;;;4979734;28;19925;-75
2022/10/07 07:54:42;;;;;;;;;;;17.70;99.90;;;;;;4969339;28;19914;-76
2022/10/07 07:57:09;;;;;;;;;;;17.60;99.90;;;;;;4969355;28;19911;-76
2022/10/07 07:59:36;;;;;;;;;;;17.60;99.90;;;;;;4969226;28;19914;-74
2022/10/07 08:02:03;;;;;;;;;;;17.60;99.90;;;;;;5018147;28;19916;-73
2022/10/07 08:04:30;;;;;;;;;;;17.60;99.90;;;;;;4999437;28;19969;-77
2022/10/07 08:06:57;;;;;;;;;;;17.50;99.90;;;;;;5035330;28;20344;-75
2022/10/07 08:09:23;;;;;;;;;;;17.60;99.90;;;;;;4969067;28;19910;-74
2022/10/07 08:11:50;;;;;;;;;;;17.60;99.90;;;;;;4996717;28;19960;-74
2022/10/07 08:14:17;;;;;;;;;;;17.60;99.90;;;;;;5035804;28;20333;-74
2022/10/07 08:16:43;;;;;;;;;;;17.60;99.90;;;;;;5048708;28;19971;-73
2022/10/07 08:19:14;;;;;;;;;;;17.60;99.90;;;;;;5050060;28;19908;-76
2022/10/07 08:21:41;;;;;;;;;;;17.60;99.90;;;;;;5049840;28;19913;-72
2022/10/07 08:24:08;;;;;;;;;;;17.60;99.90;;;;;;5049089;28;19960;-73
2022/10/07 08:26:36;;;;;;;;;;;17.60;99.90;;;;;;5046411;28;19952;-74
2022/10/07 08:29:04;;;;;;;;;;;17.60;99.90;;;;;;5048233;28;20420;-75
2022/10/07 08:31:30;;;;;;;;;;;17.60;99.90;;;;;;5047994;28;19970;-76
2022/10/07 08:33:59;;;;;;;;;;;17.60;99.90;;;;;;5046451;28;19912;-74
2022/10/07 08:36:28;;;;;;;;;;;17.50;99.90;;;;;;5049859;28;20003;-79
2022/10/07 08:38:54;;;;;;;;;;;17.50;99.90;;;;;;5048986;28;19909;-76
2022/10/07 08:41:24;;;;;;;;;;;17.50;99.90;;;;;;5048780;28;19939;-74
2022/10/07 08:43:51;;;;;;;;;;;17.50;99.90;;;;;;5047447;28;20324;-76
2022/10/07 08:46:19;;;;;;;;;;;17.50;99.90;;;;;;5048545;28;19970;-73
2022/10/07 08:48:52;;;;;;;;;;;17.50;99.90;;;;;;5048725;28;19916;-75
2022/10/07 08:51:45;;;;;;;;;;;17.50;99.90;;;;;;5047961;28;20015;-75
2022/10/07 08:54:15;;;;;;;;;;;17.50;99.90;;;;;;5046912;28;19908;-76
2022/10/07 08:56:42;;;;;;;;;;;17.50;99.90;;;;;;5048961;28;20152;-75
2022/10/07 08:59:09;;;;;;;;;;;17.50;99.90;;;;;;5051817;28;19905;-74
2022/10/07 09:01:38;;;;;;;;;;;17.50;99.90;;;;;;5053242;28;19909;-74
2022/10/07 09:04:11;;;;;;;;;;;17.50;99.90;;;;;;5051874;28;20403;-75
2022/10/07 09:06:41;;;;;;;;;;;17.40;99.90;;;;;;5085805;28;19956;-74
2022/10/07 09:09:13;;;;;;;;;;;17.40;99.90;;;;;;5053958;28;19909;-75
2022/10/07 09:11:41;;;;;;;;;;;17.40;99.90;;;;;;5085320;28;19920;-75
2022/10/07 09:14:20;;;;;;;;;;;17.40;99.90;;;;;;5052500;28;20004;-74
2022/10/07 09:16:48;;;;;;;;;;;17.40;99.90;;;;;;5020943;28;19929;-74
2022/10/07 09:19:18;;;;;;;;;;;17.40;99.90;;;;;;4971067;28;19958;-74
2022/10/07 09:21:48;;;;;;;;;;;17.40;99.90;;;;;;4970709;28;19964;-74
2022/10/07 09:24:23;;;;;;;;;;;17.40;99.90;;;;;;4970229;28;19925;-74
2022/10/07 09:26:54;;;;;;;;;;;17.40;99.90;;;;;;4970581;28;19914;-75
2022/10/07 09:29:22;;;;;;;;;;;17.40;99.90;;;;;;4970623;28;19914;-75
2022/10/07 09:31:49;;;;;;;;;;;17.40;99.90;;;;;;4970358;28;19926;-74
2022/10/07 09:34:22;;;;;;;;;;;17.30;99.90;;;;;;5059455;28;19916;-76
2022/10/07 09:37:06;;;;;;;;;;;17.30;99.90;;;;;;5072884;28;20369;-79
2022/10/07 09:39:33;;;;;;;;;;;17.30;99.90;;;;;;4971226;28;19918;-75
2022/10/07 09:42:00;;;;;;;;;;;17.30;99.90;;;;;;4969968;28;19993;-74
2022/10/07 09:44:28;;;;;;;;;;;17.30;99.90;;;;;;4968132;28;19914;-74
2022/10/07 09:46:58;;;;;;;;;;;17.30;99.90;;;;;;4970472;28;20294;-75
2022/10/07 09:49:28;;;;;;;;;;;17.30;99.90;;;;;;4970440;28;19914;-75
2022/10/07 09:51:57;;;;;;;;;;;17.30;99.90;;;;;;4970182;28;19926;-74
2022/10/07 09:54:25;;;;;;;;;;;17.30;99.90;;;;;;4970641;28;19914;-74
2022/10/07 09:56:56;;;;;;;;;;;17.30;99.90;;;;;;4970940;28;19953;-75
2022/10/07 09:59:27;;;;;;;;;;;17.30;99.90;;;;;;5037411;28;20358;-76
2022/10/07 10:01:56;;;;;;;;;;;17.30;99.90;;;;;;4969833;28;19925;-74
2022/10/07 10:04:28;;;;;;;;;;;17.30;99.90;;;;;;5036658;28;19953;-74
2022/10/07 10:06:58;;;;;;;;;;;17.30;99.90;;;;;;4970634;28;19914;-77
2022/10/07 10:09:25;;;;;;;;;;;17.30;99.90;;;;;;4968706;28;19914;-78
2022/10/07 10:12:09;;;;;;;;;;;17.30;99.90;;;;;;5025509;28;19928;-75
2022/10/07 10:14:43;;;;;;;;;;;17.30;99.90;;;;;;4956193;28;19921;-74
2022/10/07 10:17:20;;;;;;;;;;;17.30;99.90;;;;;;5066849;28;19948;-76
2022/10/07 10:19:47;;;;;;;;;;;17.30;99.90;;;;;;5071979;28;19908;-74
2022/10/07 10:22:24;;;;;;;;;;;17.30;99.90;;;;;;4996823;28;19961;-76
2022/10/07 10:27:42;;;;;;;;;;;17.30;99.90;;;;;;4970849;28;19918;-78
2022/10/07 10:30:10;;;;;;;;;;;17.30;99.90;;;;;;4970421;28;19918;-74
2022/10/07 10:32:38;;;;;;;;;;;17.30;99.90;;;;;;4969536;28;19916;-78
2022/10/07 10:35:04;;;;;;;;;;;17.30;99.90;;;;;;4970015;28;20297;-78
2022/10/07 10:37:41;;;;;;;;;;;17.30;99.90;;;;;;4969888;28;19918;-76
2022/10/07 10:40:08;;;;;;;;;;;17.30;99.90;;;;;;4970074;28;19910;-78
2022/10/07 10:42:44;;;;;;;;;;;17.30;99.90;;;;;;4969903;28;19918;-76
2022/10/07 10:45:13;;;;;;;;;;;17.30;99.90;;;;;;5059377;28;19915;-76
2022/10/07 10:47:52;;;;;;;;;;;17.30;99.90;;;;;;4995662;28;19983;-75
2022/10/07 10:50:22;;;;;;;;;;;17.30;99.90;;;;;;4969948;28;20362;-78
2022/10/07 10:52:49;;;;;;;;;;;17.30;99.90;;;;;;4969712;28;19910;-76
2022/10/07 10:55:22;;;;;;;;;;;17.30;99.90;;;;;;4970083;28;19916;-78
2022/10/07 10:57:48;;;;;;;;;;;17.30;99.90;;;;;;4969877;28;19963;-72
2022/10/07 11:00:22;;;;;;;;;;;17.30;99.90;;;;;;4969645;28;19907;-76
2022/10/07 11:03:04;;;;;;;;;;;17.30;99.90;;;;;;5043783;28;19916;-74
2022/10/07 11:05:36;;;;;;;;;;;17.20;99.90;;;;;;4969383;28;19914;-81
2022/10/07 11:08:07;;;;;;;;;;;17.30;99.90;;;;;;4968944;28;19968;-73
2022/10/07 11:10:49;;;;;;;;;;;17.30;99.90;;;;;;4969586;28;19922;-73
2022/10/07 11:13:19;;;;;;;;;;;17.30;99.90;;;;;;4969493;28;19964;-78
2022/10/07 11:15:48;;;;;;;;;;;17.30;99.90;;;;;;4952321;28;19910;-81
2022/10/07 11:18:31;;;;;;;;;;;17.30;99.90;;;;;;4968910;28;19933;-75
2022/10/07 11:20:58;;;;;;;;;;;17.30;99.90;;;;;;4969190;28;19914;-74
2022/10/07 11:23:25;;;;;;;;;;;17.30;99.90;;;;;;4969576;28;20437;-74
2022/10/07 11:25:56;;;;;;;;;;;17.30;99.90;;;;;;4969771;28;19914;-82
2022/10/07 11:28:25;;;;;;;;;;;17.30;99.90;;;;;;4969366;28;20021;-75
2022/10/07 11:31:01;;;;;;;;;;;17.30;99.90;;;;;;4968854;28;19951;-80
2022/10/07 11:33:46;;;;;;;;;;;17.30;99.90;;;;;;4960266;28;20005;-79
2022/10/07 11:36:19;;;;;;;;;;;17.30;99.90;;;;;;4983890;28;19961;-80
2022/10/07 11:38:46;;;;;;;;;;;17.30;99.90;;;;;;4969120;28;19916;-75
2022/10/07 11:41:25;;;;;;;;;;;17.30;99.90;;;;;;4968397;28;19932;-77
2022/10/07 11:43:55;;;;;;;;;;;17.30;99.90;;;;;;4968904;28;20294;-75
2022/10/07 11:46:43;;;;;;;;;;;17.40;99.90;;;;;;4968970;28;19910;-82
2022/10/07 11:49:29;;;;;;;;;;;17.30;99.90;;;;;;4968970;28;19915;-75
2022/10/07 11:52:03;;;;;;;;;;;17.30;99.90;;;;;;5033048;28;20271;-74
2022/10/07 11:54:36;;;;;;;;;;;17.40;99.90;;;;;;4972860;28;19917;-75
2022/10/07 11:57:04;;;;;;;;;;;17.40;99.90;;;;;;4969713;28;20404;-73
2022/10/07 11:59:33;;;;;;;;;;;17.40;99.90;;;;;;4951620;28;19918;-78
2022/10/07 12:02:00;;;;;;;;;;;17.40;99.90;;;;;;4969200;28;19918;-78
2022/10/07 12:04:29;;;;;;;;;;;17.40;99.90;;;;;;4969086;28;19914;-73
2022/10/07 12:07:14;;;;;;;;;;;17.40;99.90;;;;;;4969021;28;19914;-74
2022/10/07 12:10:12;;;;;;;;;;;17.30;99.90;;;;;;4988788;28;19976;-76
2022/10/07 12:12:43;;;;;;;;;;;17.40;99.90;;;;;;4969153;28;19918;-76
2022/10/07 12:15:41;;;;;;;;;;;17.40;99.90;;;;;;4968905;28;19910;-73
2022/10/07 12:18:09;;;;;;;;;;;17.40;99.90;;;;;;4979893;28;20038;-73
2022/10/07 12:20:45;;;;;;;;;;;17.40;99.90;;;;;;4969528;28;20359;-72
2022/10/07 12:25:48;;;;;;;;;;;17.40;99.90;;;;;;4969058;28;20013;-73
2022/10/07 12:28:17;;;;;;;;;;;17.30;99.90;;;;;;4968827;28;19967;-73
2022/10/07 12:30:54;;;;;;;;;;;17.40;99.90;;;;;;4967784;28;20362;-79
2022/10/07 12:33:30;;;;;;;;;;;17.40;99.90;;;;;;4969368;28;19914;-78
2022/10/07 12:35:57;;;;;;;;;;;17.30;99.90;;;;;;4972161;28;20312;-78
2022/10/07 12:38:28;;;;;;;;;;;17.40;99.90;;;;;;4972714;28;19932;-83
2022/10/07 12:40:57;;;;;;;;;;;17.40;99.90;;;;;;4972249;28;19918;-75
2022/10/07 12:43:36;;;;;;;;;;;17.40;99.90;;;;;;4972182;28;20569;-73
2022/10/07 12:46:09;;;;;;;;;;;17.40;99.90;;;;;;4971604;28;19911;-74
2022/10/07 12:48:40;;;;;;;;;;;17.40;99.90;;;;;;4972478;28;20001;-74
2022/10/07 12:51:13;;;;;;;;;;;17.40;99.90;;;;;;4972474;28;19923;-73
2022/10/07 12:53:40;;;;;;;;;;;17.40;99.90;;;;;;4972248;28;19910;-74
2022/10/07 12:56:07;;;;;;;;;;;17.40;99.90;;;;;;4971975;28;19955;-73
2022/10/07 13:01:45;;;;;;;;;;;17.40;99.90;;;;;;4972442;28;19921;-73
2022/10/07 13:04:21;;;;;;;;;;;17.40;99.90;;;;;;4972080;28;19910;-73
2022/10/07 13:06:58;;;;;;;;;;;17.40;99.90;;;;;;4971999;28;19957;-73
2022/10/07 13:09:35;;;;;;;;;;;17.40;99.90;;;;;;4971894;28;20358;-73
2022/10/07 13:12:37;;;;;;;;;;;17.40;99.90;;;;;;4971774;28;19922;-73
2022/10/07 13:15:07;;;;;;;;;;;17.40;99.90;;;;;;4959901;28;19915;-75
2022/10/07 13:17:45;;;;;;;;;;;17.40;99.90;;;;;;4938675;28;19923;-72
2022/10/07 13:20:12;;;;;;;;;;;17.40;99.90;;;;;;4961338;28;20363;-75
2022/10/07 13:22:44;;;;;;;;;;;17.40;99.90;;;;;;4971417;28;19910;-74
2022/10/07 13:25:11;;;;;;;;;;;17.40;99.90;;;;;;4971368;28;19953;-75
2022/10/07 13:27:40;;;;;;;;;;;17.50;99.90;;;;;;4972006;28;19918;-74
2022/10/07 13:30:07;;;;;;;;;;;17.40;99.90;;;;;;4972004;28;19914;-74
2022/10/07 13:32:34;;;;;;;;;;;17.40;99.90;;;;;;4971659;28;20323;-73
2022/10/07 13:35:21;;;;;;;;;;;17.50;99.90;;;;;;4971617;28;20282;-74
2022/10/07 13:37:47;;;;;;;;;;;17.40;99.90;;;;;;4967788;28;19914;-73
2022/10/07 13:40:20;;;;;;;;;;;17.50;99.90;;;;;;4971874;28;19910;-73
2022/10/07 13:42:54;;;;;;;;;;;17.50;99.90;;;;;;4971393;28;19934;-74
2022/10/07 13:45:21;;;;;;;;;;;17.50;99.90;;;;;;4971891;28;19956;-77
2022/10/07 13:47:48;;;;;;;;;;;17.50;99.90;;;;;;4971093;28;20298;-74
2022/10/07 13:50:22;;;;;;;;;;;17.50;99.90;;;;;;4971430;28;19966;-73
2022/10/07 13:52:52;;;;;;;;;;;17.50;99.90;;;;;;4970875;28;19910;-74
2022/10/07 13:55:19;;;;;;;;;;;17.60;99.90;;;;;;4970804;28;19910;-74
2022/10/07 13:57:47;;;;;;;;;;;17.60;99.90;;;;;;4971410;28;19911;-74
2022/10/07 14:00:16;;;;;;;;;;;17.50;99.90;;;;;;4971354;28;19918;-74
2022/10/07 14:02:43;;;;;;;;;;;17.50;99.90;;;;;;4971566;28;19910;-73
2022/10/07 14:05:21;;;;;;;;;;;17.50;99.90;;;;;;4956503;28;20385;-75
2022/10/07 14:07:52;;;;;;;;;;;17.60;99.90;;;;;;4970962;28;19914;-74
2022/10/07 14:10:19;;;;;;;;;;;17.50;99.90;;;;;;4953365;28;19964;-74
2022/10/07 14:12:47;;;;;;;;;;;17.50;99.90;;;;;;4970666;28;19953;-74
2022/10/07 14:15:22;;;;;;;;;;;17.50;99.90;;;;;;4970863;28;19964;-76
2022/10/07 14:17:55;;;;;;;;;;;17.50;99.90;;;;;;4970351;28;20407;-74
2022/10/07 14:20:29;;;;;;;;;;;17.50;99.90;;;;;;4970655;28;20010;-73
2022/10/07 14:22:57;;;;;;;;;;;17.50;99.90;;;;;;4970300;28;19918;-73
2022/10/07 14:25:26;;;;;;;;;;;17.60;99.90;;;;;;4972056;28;20410;-73
2022/10/07 14:27:53;;;;;;;;;;;17.60;99.90;;;;;;4970904;28;19910;-74
2022/10/07 14:37:03;;;;;;;;;;;17.50;99.90;;;;;;4970970;28;19921;-75
2022/10/07 14:39:34;;;;;;;;;;;17.60;99.90;;;;;;4953297;28;19910;-74
2022/10/07 14:42:01;;;;;;;;;;;17.60;99.90;;;;;;4970354;28;19910;-79
2022/10/07 14:44:28;;;;;;;;;;;17.60;99.90;;;;;;4970348;28;20290;-73
2022/10/07 14:47:08;;;;;;;;;;;17.60;99.90;;;;;;4969204;28;19937;-74
2022/10/07 14:49:35;;;;;;;;;;;17.60;99.90;;;;;;4952592;28;20271;-74
2022/10/07 14:52:02;;;;;;;;;;;17.50;99.90;;;;;;4970146;28;19918;-75
2022/10/07 14:54:29;;;;;;;;;;;17.60;99.90;;;;;;4970666;28;19963;-74
2022/10/07 14:56:56;;;;;;;;;;;17.50;99.90;;;;;;4953265;28;19918;-76